KEST/EST METAR and TAF weather

Enter ICAO airport designator
Station Type Date Time Source
KEST METAR 2019/10/23 20:52 UTC NOAA

KEST 232052Z AUTO 36004KT 10SM SCT050 OVC060 04/01 A2995 RMK AO2 RAB1954E06UPB06E18 SLP154 P0001 60005 T00390006 53008


Station Type Date Time Source
KEST Decoded METAR 2019/10/23 20:52 UTC NOAA

ESTHERVILLE MUNICIPAL AIRPORT , IA, United States (KEST) 43-24N 94-45W 401M
Oct 23, 2019 - 04:52 PM EDT / 2019.10.23 2052 UTC
Wind: from the N (360 degrees) at 5 MPH (4 KT):0
Visibility: 10 mile(s):0
Sky conditions: overcast
Precipitation last hour: 0.01 inches
Temperature: 39.0 F (3.9 C)
Dew Point: 33.1 F (0.6 C)
Relative Humidity: 79%
Pressure (altimeter): 29.95 in. Hg (1014 hPa)
Pressure tendency: 0.02 inches (0.8 hPa) higher than three hours ago
ob: KEST 232052Z AUTO 36004KT 10SM SCT050 OVC060 04/01 A2995 RMK AO2 RAB1954E06UPB06E18 SLP154 P0001 60005 T00390006 53008
cycle: 21

Station Type Date Time Source
KEST TAF UTC NOAA

Error!

Example: see airport list